sensor_id;sensor_type;location;lat;lon;timestamp;P1;durP1;ratioP1;P2;durP2;ratioP2
67344;SDS011;54230;52.402;6.276;2024-02-21T00:00:00;21.8;;;9.7;;
67344;SDS011;54230;52.402;6.276;2024-02-21T00:05:00;26.7;;;9.8;;
67344;SDS011;54230;52.402;6.276;2024-02-21T00:10:00;23.0;;;10.0;;
67344;SDS011;54230;52.402;6.276;2024-02-21T00:15:00;22.5;;;8.9;;
67344;SDS011;54230;52.402;6.276;2024-02-21T00:20:00;21.1;;;9.0;;
67344;SDS011;54230;52.402;6.276;2024-02-21T00:25:00;20.0;;;8.5;;
67344;SDS011;54230;52.402;6.276;2024-02-21T00:30:00;19.4;;;8.8;;
67344;SDS011;54230;52.402;6.276;2024-02-21T00:35:00;23.2;;;9.0;;
67344;SDS011;54230;52.402;6.276;2024-02-21T00:40:00;16.8;;;8.3;;
67344;SDS011;54230;52.402;6.276;2024-02-21T00:45:00;23.0;;;8.2;;
67344;SDS011;54230;52.402;6.276;2024-02-21T00:50:00;21.7;;;8.4;;
67344;SDS011;54230;52.402;6.276;2024-02-21T00:55:00;18.8;;;7.8;;
67344;SDS011;54230;52.402;6.276;2024-02-21T01:00:00;17.5;;;7.2;;
67344;SDS011;54230;52.402;6.276;2024-02-21T01:05:00;23.1;;;7.8;;
67344;SDS011;54230;52.402;6.276;2024-02-21T01:10:00;18.7;;;7.3;;
67344;SDS011;54230;52.402;6.276;2024-02-21T01:15:00;20.3;;;8.0;;
67344;SDS011;54230;52.402;6.276;2024-02-21T01:20:00;15.7;;;7.1;;
67344;SDS011;54230;52.402;6.276;2024-02-21T01:25:00;18.0;;;7.6;;
67344;SDS011;54230;52.402;6.276;2024-02-21T01:30:00;19.7;;;7.6;;
67344;SDS011;54230;52.402;6.276;2024-02-21T01:35:00;18.4;;;7.2;;
67344;SDS011;54230;52.402;6.276;2024-02-21T01:40:00;15.3;;;7.5;;
67344;SDS011;54230;52.402;6.276;2024-02-21T01:45:00;17.5;;;7.2;;
67344;SDS011;54230;52.402;6.276;2024-02-21T01:50:00;18.5;;;7.2;;
67344;SDS011;54230;52.402;6.276;2024-02-21T01:55:00;17.9;;;7.1;;
67344;SDS011;54230;52.402;6.276;2024-02-21T02:00:00;15.9;;;6.8;;
67344;SDS011;54230;52.402;6.276;2024-02-21T02:05:00;17.1;;;7.2;;
67344;SDS011;54230;52.402;6.276;2024-02-21T02:10:00;16.3;;;6.5;;
67344;SDS011;54230;52.402;6.276;2024-02-21T02:15:00;17.9;;;7.1;;
67344;SDS011;54230;52.402;6.276;2024-02-21T02:20:00;17.5;;;6.6;;
67344;SDS011;54230;52.402;6.276;2024-02-21T02:25:00;16.3;;;7.0;;
67344;SDS011;54230;52.402;6.276;2024-02-21T02:30:00;19.5;;;6.6;;
67344;SDS011;54230;52.402;6.276;2024-02-21T02:35:00;19.2;;;6.9;;
67344;SDS011;54230;52.402;6.276;2024-02-21T02:40:00;17.5;;;7.2;;
67344;SDS011;54230;52.402;6.276;2024-02-21T02:45:00;19.7;;;7.1;;
67344;SDS011;54230;52.402;6.276;2024-02-21T02:50:00;19.4;;;7.1;;
67344;SDS011;54230;52.402;6.276;2024-02-21T02:55:00;19.2;;;6.8;;
67344;SDS011;54230;52.402;6.276;2024-02-21T03:00:00;20.4;;;7.1;;
67344;SDS011;54230;52.402;6.276;2024-02-21T03:05:00;17.5;;;7.1;;
67344;SDS011;54230;52.402;6.276;2024-02-21T03:10:00;22.5;;;7.7;;
67344;SDS011;54230;52.402;6.276;2024-02-21T03:15:00;18.4;;;7.6;;
67344;SDS011;54230;52.402;6.276;2024-02-21T03:20:00;19.6;;;7.8;;
67344;SDS011;54230;52.402;6.276;2024-02-21T03:25:00;20.3;;;8.3;;
67344;SDS011;54230;52.402;6.276;2024-02-21T03:30:00;19.9;;;7.9;;
67344;SDS011;54230;52.402;6.276;2024-02-21T03:35:00;18.6;;;8.1;;
67344;SDS011;54230;52.402;6.276;2024-02-21T03:40:00;24.9;;;8.6;;
67344;SDS011;54230;52.402;6.276;2024-02-21T03:45:00;25.3;;;8.8;;
67344;SDS011;54230;52.402;6.276;2024-02-21T03:50:00;24.2;;;8.1;;
67344;SDS011;54230;52.402;6.276;2024-02-21T03:55:00;22.9;;;8.9;;
67344;SDS011;54230;52.402;6.276;2024-02-21T04:00:00;22.1;;;8.4;;
67344;SDS011;54230;52.402;6.276;2024-02-21T04:05:00;23.3;;;8.7;;
67344;SDS011;54230;52.402;6.276;2024-02-21T04:10:00;24.3;;;8.8;;
67344;SDS011;54230;52.402;6.276;2024-02-21T04:15:00;20.2;;;8.6;;
67344;SDS011;54230;52.402;6.276;2024-02-21T04:20:01;23.7;;;9.1;;
67344;SDS011;54230;52.402;6.276;2024-02-21T04:25:00;24.8;;;8.9;;
67344;SDS011;54230;52.402;6.276;2024-02-21T04:30:00;21.5;;;9.3;;
67344;SDS011;54230;52.402;6.276;2024-02-21T04:35:00;22.8;;;9.0;;
67344;SDS011;54230;52.402;6.276;2024-02-21T04:40:00;22.5;;;9.0;;
67344;SDS011;54230;52.402;6.276;2024-02-21T04:45:00;22.5;;;9.1;;
67344;SDS011;54230;52.402;6.276;2024-02-21T04:50:00;21.3;;;8.5;;
67344;SDS011;54230;52.402;6.276;2024-02-21T04:55:00;21.6;;;8.5;;
67344;SDS011;54230;52.402;6.276;2024-02-21T05:00:00;25.3;;;8.9;;
67344;SDS011;54230;52.402;6.276;2024-02-21T05:05:00;22.8;;;9.1;;
67344;SDS011;54230;52.402;6.276;2024-02-21T05:10:00;24.5;;;8.3;;
67344;SDS011;54230;52.402;6.276;2024-02-21T05:15:00;27.6;;;9.0;;
67344;SDS011;54230;52.402;6.276;2024-02-21T05:20:00;24.8;;;9.3;;
67344;SDS011;54230;52.402;6.276;2024-02-21T05:25:00;24.8;;;9.5;;
67344;SDS011;54230;52.402;6.276;2024-02-21T05:30:00;23.7;;;8.8;;
67344;SDS011;54230;52.402;6.276;2024-02-21T05:35:00;26.9;;;9.1;;
67344;SDS011;54230;52.402;6.276;2024-02-21T05:40:00;24.1;;;8.8;;
67344;SDS011;54230;52.402;6.276;2024-02-21T05:45:00;24.7;;;8.9;;
67344;SDS011;54230;52.402;6.276;2024-02-21T05:50:00;18.0;;;8.5;;
67344;SDS011;54230;52.402;6.276;2024-02-21T05:55:00;21.8;;;9.0;;
67344;SDS011;54230;52.402;6.276;2024-02-21T06:00:00;19.5;;;8.4;;
67344;SDS011;54230;52.402;6.276;2024-02-21T06:05:00;25.2;;;10.3;;
67344;SDS011;54230;52.402;6.276;2024-02-21T06:10:00;22.4;;;10.3;;
67344;SDS011;54230;52.402;6.276;2024-02-21T06:15:00;20.8;;;10.1;;
67344;SDS011;54230;52.402;6.276;2024-02-21T06:20:00;20.6;;;9.7;;
67344;SDS011;54230;52.402;6.276;2024-02-21T06:25:00;24.3;;;9.6;;
67344;SDS011;54230;52.402;6.276;2024-02-21T06:30:00;21.8;;;10.0;;
67344;SDS011;54230;52.402;6.276;2024-02-21T06:35:00;21.9;;;9.4;;
67344;SDS011;54230;52.402;6.276;2024-02-21T06:40:00;23.0;;;10.4;;
67344;SDS011;54230;52.402;6.276;2024-02-21T06:45:00;22.8;;;10.1;;
67344;SDS011;54230;52.402;6.276;2024-02-21T06:50:00;21.8;;;10.0;;
67344;SDS011;54230;52.402;6.276;2024-02-21T06:55:00;24.5;;;10.8;;
67344;SDS011;54230;52.402;6.276;2024-02-21T07:00:00;23.7;;;10.7;;
67344;SDS011;54230;52.402;6.276;2024-02-21T07:05:00;24.4;;;11.1;;
67344;SDS011;54230;52.402;6.276;2024-02-21T07:10:00;21.6;;;10.8;;
67344;SDS011;54230;52.402;6.276;2024-02-21T07:15:00;24.6;;;10.8;;
67344;SDS011;54230;52.402;6.276;2024-02-21T07:20:00;21.8;;;10.9;;
67344;SDS011;54230;52.402;6.276;2024-02-21T07:25:00;24.1;;;11.2;;
67344;SDS011;54230;52.402;6.276;2024-02-21T07:30:00;25.8;;;11.1;;
67344;SDS011;54230;52.402;6.276;2024-02-21T07:35:00;24.7;;;11.7;;
67344;SDS011;54230;52.402;6.276;2024-02-21T07:40:00;23.0;;;10.7;;
67344;SDS011;54230;52.402;6.276;2024-02-21T07:45:00;25.9;;;11.7;;
67344;SDS011;54230;52.402;6.276;2024-02-21T07:50:00;27.6;;;12.3;;
67344;SDS011;54230;52.402;6.276;2024-02-21T07:55:00;25.9;;;12.1;;
67344;SDS011;54230;52.402;6.276;2024-02-21T08:00:00;25.7;;;11.7;;
67344;SDS011;54230;52.402;6.276;2024-02-21T08:05:00;27.3;;;12.3;;
67344;SDS011;54230;52.402;6.276;2024-02-21T08:10:00;25.8;;;12.1;;
67344;SDS011;54230;52.402;6.276;2024-02-21T08:15:00;23.1;;;11.4;;
67344;SDS011;54230;52.402;6.276;2024-02-21T08:20:00;24.1;;;10.9;;
67344;SDS011;54230;52.402;6.276;2024-02-21T08:25:00;25.0;;;11.4;;
67344;SDS011;54230;52.402;6.276;2024-02-21T08:30:00;22.4;;;10.1;;
67344;SDS011;54230;52.402;6.276;2024-02-21T08:35:00;18.7;;;10.1;;
67344;SDS011;54230;52.402;6.276;2024-02-21T08:40:00;20.7;;;9.5;;
67344;SDS011;54230;52.402;6.276;2024-02-21T08:45:00;20.9;;;9.6;;
67344;SDS011;54230;52.402;6.276;2024-02-21T08:50:00;21.5;;;9.7;;
67344;SDS011;54230;52.402;6.276;2024-02-21T08:55:00;18.9;;;8.7;;
67344;SDS011;54230;52.402;6.276;2024-02-21T09:00:00;19.5;;;8.5;;
67344;SDS011;54230;52.402;6.276;2024-02-21T09:05:00;18.8;;;8.6;;
67344;SDS011;54230;52.402;6.276;2024-02-21T09:10:00;17.2;;;7.6;;
67344;SDS011;54230;52.402;6.276;2024-02-21T09:15:00;19.1;;;8.1;;
67344;SDS011;54230;52.402;6.276;2024-02-21T09:20:00;21.3;;;8.1;;
67344;SDS011;54230;52.402;6.276;2024-02-21T09:25:00;19.4;;;8.1;;
67344;SDS011;54230;52.402;6.276;2024-02-21T09:30:00;18.3;;;7.7;;
67344;SDS011;54230;52.402;6.276;2024-02-21T09:35:00;18.2;;;7.5;;
67344;SDS011;54230;52.402;6.276;2024-02-21T09:40:00;19.1;;;8.0;;
67344;SDS011;54230;52.402;6.276;2024-02-21T09:45:00;17.4;;;7.5;;
67344;SDS011;54230;52.402;6.276;2024-02-21T09:50:00;19.0;;;7.7;;
67344;SDS011;54230;52.402;6.276;2024-02-21T09:55:00;17.4;;;7.8;;
67344;SDS011;54230;52.402;6.276;2024-02-21T10:00:00;14.6;;;6.9;;
67344;SDS011;54230;52.402;6.276;2024-02-21T10:05:00;16.2;;;7.3;;
67344;SDS011;54230;52.402;6.276;2024-02-21T10:10:00;14.8;;;7.5;;
67344;SDS011;54230;52.402;6.276;2024-02-21T10:15:00;17.9;;;7.9;;
67344;SDS011;54230;52.402;6.276;2024-02-21T10:20:06;16.4;;;7.6;;
67344;SDS011;54230;52.402;6.276;2024-02-21T10:25:06;17.0;;;8.3;;
67344;SDS011;54230;52.402;6.276;2024-02-21T10:30:00;17.0;;;7.9;;
67344;SDS011;54230;52.402;6.276;2024-02-21T10:35:00;16.6;;;8.1;;
67344;SDS011;54230;52.402;6.276;2024-02-21T10:40:00;15.6;;;7.3;;
67344;SDS011;54230;52.402;6.276;2024-02-21T10:45:01;15.6;;;7.9;;
67344;SDS011;54230;52.402;6.276;2024-02-21T10:50:02;12.5;;;6.7;;
67344;SDS011;54230;52.402;6.276;2024-02-21T10:55:03;13.4;;;6.3;;
67344;SDS011;54230;52.402;6.276;2024-02-21T11:00:00;14.6;;;6.5;;
67344;SDS011;54230;52.402;6.276;2024-02-21T11:05:00;13.2;;;6.4;;
67344;SDS011;54230;52.402;6.276;2024-02-21T11:10:00;13.1;;;6.2;;
67344;SDS011;54230;52.402;6.276;2024-02-21T11:15:03;12.4;;;5.9;;
67344;SDS011;54230;52.402;6.276;2024-02-21T11:20:10;13.3;;;6.2;;
67344;SDS011;54230;52.402;6.276;2024-02-21T11:25:06;10.2;;;5.8;;
67344;SDS011;54230;52.402;6.276;2024-02-21T11:30:00;13.7;;;6.0;;
67344;SDS011;54230;52.402;6.276;2024-02-21T11:35:00;12.7;;;6.4;;
67344;SDS011;54230;52.402;6.276;2024-02-21T11:40:00;11.0;;;5.7;;
67344;SDS011;54230;52.402;6.276;2024-02-21T11:45:00;9.9;;;5.3;;
67344;SDS011;54230;52.402;6.276;2024-02-21T11:50:00;9.9;;;5.1;;
67344;SDS011;54230;52.402;6.276;2024-02-21T11:55:00;9.8;;;4.6;;
67344;SDS011;54230;52.402;6.276;2024-02-21T12:00:09;10.6;;;5.1;;
67344;SDS011;54230;52.402;6.276;2024-02-21T12:05:00;9.2;;;4.7;;
67344;SDS011;54230;52.402;6.276;2024-02-21T12:10:00;9.5;;;4.6;;
67344;SDS011;54230;52.402;6.276;2024-02-21T12:15:00;8.9;;;5.0;;
67344;SDS011;54230;52.402;6.276;2024-02-21T12:20:00;9.6;;;5.1;;
67344;SDS011;54230;52.402;6.276;2024-02-21T12:25:02;12.7;;;6.0;;
67344;SDS011;54230;52.402;6.276;2024-02-21T12:30:00;12.2;;;6.0;;
67344;SDS011;54230;52.402;6.276;2024-02-21T12:35:00;13.1;;;5.8;;
67344;SDS011;54230;52.402;6.276;2024-02-21T12:40:00;12.4;;;6.1;;
67344;SDS011;54230;52.402;6.276;2024-02-21T12:45:00;13.4;;;5.7;;
67344;SDS011;54230;52.402;6.276;2024-02-21T12:50:00;15.3;;;6.1;;
67344;SDS011;54230;52.402;6.276;2024-02-21T12:55:00;15.5;;;5.6;;
67344;SDS011;54230;52.402;6.276;2024-02-21T13:00:00;11.2;;;5.6;;
67344;SDS011;54230;52.402;6.276;2024-02-21T13:05:00;12.1;;;5.7;;
67344;SDS011;54230;52.402;6.276;2024-02-21T13:10:00;11.9;;;5.9;;
67344;SDS011;54230;52.402;6.276;2024-02-21T13:15:00;12.3;;;5.7;;
67344;SDS011;54230;52.402;6.276;2024-02-21T13:20:00;11.6;;;5.5;;
67344;SDS011;54230;52.402;6.276;2024-02-21T13:25:00;11.8;;;5.2;;
67344;SDS011;54230;52.402;6.276;2024-02-21T13:30:00;11.8;;;5.3;;
67344;SDS011;54230;52.402;6.276;2024-02-21T13:35:00;10.9;;;5.4;;
67344;SDS011;54230;52.402;6.276;2024-02-21T13:40:00;13.0;;;5.3;;
67344;SDS011;54230;52.402;6.276;2024-02-21T13:45:00;11.3;;;5.5;;
67344;SDS011;54230;52.402;6.276;2024-02-21T13:50:00;10.6;;;5.2;;
67344;SDS011;54230;52.402;6.276;2024-02-21T13:55:00;12.1;;;5.5;;
67344;SDS011;54230;52.402;6.276;2024-02-21T14:00:00;10.6;;;5.4;;
67344;SDS011;54230;52.402;6.276;2024-02-21T14:05:00;11.8;;;5.3;;
67344;SDS011;54230;52.402;6.276;2024-02-21T14:10:00;12.9;;;5.1;;
67344;SDS011;54230;52.402;6.276;2024-02-21T14:15:00;10.0;;;5.2;;
67344;SDS011;54230;52.402;6.276;2024-02-21T14:20:00;12.6;;;5.7;;
67344;SDS011;54230;52.402;6.276;2024-02-21T14:25:00;10.4;;;5.0;;
67344;SDS011;54230;52.402;6.276;2024-02-21T14:30:00;13.4;;;5.1;;
67344;SDS011;54230;52.402;6.276;2024-02-21T14:35:00;11.5;;;5.2;;
67344;SDS011;54230;52.402;6.276;2024-02-21T14:40:00;11.7;;;5.2;;
67344;SDS011;54230;52.402;6.276;2024-02-21T14:45:00;14.7;;;5.8;;
67344;SDS011;54230;52.402;6.276;2024-02-21T14:50:01;12.3;;;5.3;;
67344;SDS011;54230;52.402;6.276;2024-02-21T14:55:00;11.1;;;5.4;;
67344;SDS011;54230;52.402;6.276;2024-02-21T15:00:00;10.9;;;5.1;;
67344;SDS011;54230;52.402;6.276;2024-02-21T15:05:00;12.8;;;5.5;;
67344;SDS011;54230;52.402;6.276;2024-02-21T15:10:00;10.6;;;5.2;;
67344;SDS011;54230;52.402;6.276;2024-02-21T15:15:00;9.8;;;5.1;;
67344;SDS011;54230;52.402;6.276;2024-02-21T15:20:00;11.6;;;5.1;;
67344;SDS011;54230;52.402;6.276;2024-02-21T15:25:00;10.0;;;5.1;;
67344;SDS011;54230;52.402;6.276;2024-02-21T15:30:01;10.9;;;5.2;;
67344;SDS011;54230;52.402;6.276;2024-02-21T15:35:00;12.0;;;4.7;;
67344;SDS011;54230;52.402;6.276;2024-02-21T15:40:00;10.6;;;4.6;;
67344;SDS011;54230;52.402;6.276;2024-02-21T15:45:00;12.3;;;4.6;;
67344;SDS011;54230;52.402;6.276;2024-02-21T15:50:00;11.2;;;4.3;;
67344;SDS011;54230;52.402;6.276;2024-02-21T15:55:00;9.6;;;4.6;;
67344;SDS011;54230;52.402;6.276;2024-02-21T16:00:00;8.9;;;4.1;;
67344;SDS011;54230;52.402;6.276;2024-02-21T16:05:00;9.1;;;4.0;;
67344;SDS011;54230;52.402;6.276;2024-02-21T16:10:00;8.3;;;4.1;;
67344;SDS011;54230;52.402;6.276;2024-02-21T16:15:00;10.7;;;4.1;;
67344;SDS011;54230;52.402;6.276;2024-02-21T16:20:00;10.5;;;4.2;;
67344;SDS011;54230;52.402;6.276;2024-02-21T16:25:00;7.5;;;4.0;;
67344;SDS011;54230;52.402;6.276;2024-02-21T16:30:00;8.6;;;4.2;;
67344;SDS011;54230;52.402;6.276;2024-02-21T16:35:00;9.0;;;4.0;;
67344;SDS011;54230;52.402;6.276;2024-02-21T16:40:00;11.2;;;4.5;;
67344;SDS011;54230;52.402;6.276;2024-02-21T16:45:00;9.1;;;4.2;;
67344;SDS011;54230;52.402;6.276;2024-02-21T16:50:00;12.6;;;6.8;;
67344;SDS011;54230;52.402;6.276;2024-02-21T16:55:00;13.0;;;6.8;;
67344;SDS011;54230;52.402;6.276;2024-02-21T17:00:00;12.9;;;6.7;;
67344;SDS011;54230;52.402;6.276;2024-02-21T17:05:00;12.4;;;6.2;;
67344;SDS011;54230;52.402;6.276;2024-02-21T17:10:00;11.8;;;5.9;;
67344;SDS011;54230;52.402;6.276;2024-02-21T17:15:00;11.2;;;6.0;;
67344;SDS011;54230;52.402;6.276;2024-02-21T17:20:00;12.2;;;5.2;;
67344;SDS011;54230;52.402;6.276;2024-02-21T17:25:00;8.1;;;4.7;;
67344;SDS011;54230;52.402;6.276;2024-02-21T17:30:00;8.4;;;4.9;;
67344;SDS011;54230;52.402;6.276;2024-02-21T17:35:00;9.1;;;4.5;;
67344;SDS011;54230;52.402;6.276;2024-02-21T17:40:00;10.5;;;4.8;;
67344;SDS011;54230;52.402;6.276;2024-02-21T17:45:00;9.3;;;4.1;;
67344;SDS011;54230;52.402;6.276;2024-02-21T17:50:00;8.4;;;4.4;;
67344;SDS011;54230;52.402;6.276;2024-02-21T17:55:00;9.0;;;4.6;;
67344;SDS011;54230;52.402;6.276;2024-02-21T18:00:00;10.0;;;4.3;;
67344;SDS011;54230;52.402;6.276;2024-02-21T18:05:00;8.0;;;4.2;;
67344;SDS011;54230;52.402;6.276;2024-02-21T18:10:00;10.2;;;4.3;;
67344;SDS011;54230;52.402;6.276;2024-02-21T18:15:00;10.5;;;4.7;;
67344;SDS011;54230;52.402;6.276;2024-02-21T18:20:00;9.6;;;4.5;;
67344;SDS011;54230;52.402;6.276;2024-02-21T18:25:00;11.2;;;4.9;;
67344;SDS011;54230;52.402;6.276;2024-02-21T18:30:00;10.8;;;5.2;;
67344;SDS011;54230;52.402;6.276;2024-02-21T18:35:00;12.7;;;5.4;;
67344;SDS011;54230;52.402;6.276;2024-02-21T18:40:00;10.3;;;5.5;;
67344;SDS011;54230;52.402;6.276;2024-02-21T18:45:00;12.3;;;5.5;;
67344;SDS011;54230;52.402;6.276;2024-02-21T18:50:00;12.0;;;5.7;;
67344;SDS011;54230;52.402;6.276;2024-02-21T18:55:00;12.9;;;5.8;;
67344;SDS011;54230;52.402;6.276;2024-02-21T19:00:00;10.3;;;5.8;;
67344;SDS011;54230;52.402;6.276;2024-02-21T19:05:00;11.6;;;6.1;;
67344;SDS011;54230;52.402;6.276;2024-02-21T19:10:00;11.8;;;6.3;;
67344;SDS011;54230;52.402;6.276;2024-02-21T19:15:00;11.4;;;5.8;;
67344;SDS011;54230;52.402;6.276;2024-02-21T19:20:00;12.3;;;6.2;;
67344;SDS011;54230;52.402;6.276;2024-02-21T19:25:00;10.4;;;6.0;;
67344;SDS011;54230;52.402;6.276;2024-02-21T19:30:00;10.5;;;5.8;;
67344;SDS011;54230;52.402;6.276;2024-02-21T19:35:00;10.4;;;5.6;;
67344;SDS011;54230;52.402;6.276;2024-02-21T19:40:00;10.3;;;5.8;;
67344;SDS011;54230;52.402;6.276;2024-02-21T19:45:00;12.2;;;5.8;;
67344;SDS011;54230;52.402;6.276;2024-02-21T19:50:00;11.5;;;6.3;;
67344;SDS011;54230;52.402;6.276;2024-02-21T19:55:00;12.1;;;6.0;;
67344;SDS011;54230;52.402;6.276;2024-02-21T20:00:00;10.6;;;6.3;;
67344;SDS011;54230;52.402;6.276;2024-02-21T20:05:00;11.2;;;6.5;;
67344;SDS011;54230;52.402;6.276;2024-02-21T20:10:00;12.4;;;6.5;;
67344;SDS011;54230;52.402;6.276;2024-02-21T20:15:00;12.3;;;6.7;;
67344;SDS011;54230;52.402;6.276;2024-02-21T20:20:00;11.3;;;6.5;;
67344;SDS011;54230;52.402;6.276;2024-02-21T20:25:00;12.5;;;6.1;;
67344;SDS011;54230;52.402;6.276;2024-02-21T20:30:00;13.2;;;6.6;;
67344;SDS011;54230;52.402;6.276;2024-02-21T20:35:00;10.9;;;6.2;;
67344;SDS011;54230;52.402;6.276;2024-02-21T20:40:00;10.9;;;6.4;;
67344;SDS011;54230;52.402;6.276;2024-02-21T20:45:00;11.3;;;6.3;;
67344;SDS011;54230;52.402;6.276;2024-02-21T20:50:00;11.6;;;6.7;;
67344;SDS011;54230;52.402;6.276;2024-02-21T20:55:00;12.7;;;7.5;;
67344;SDS011;54230;52.402;6.276;2024-02-21T21:00:00;10.8;;;5.9;;
67344;SDS011;54230;52.402;6.276;2024-02-21T21:05:00;12.0;;;6.7;;
67344;SDS011;54230;52.402;6.276;2024-02-21T21:10:00;12.1;;;6.1;;
67344;SDS011;54230;52.402;6.276;2024-02-21T21:15:00;11.9;;;6.8;;
67344;SDS011;54230;52.402;6.276;2024-02-21T21:20:00;12.2;;;6.7;;
67344;SDS011;54230;52.402;6.276;2024-02-21T21:25:00;12.7;;;6.8;;
67344;SDS011;54230;52.402;6.276;2024-02-21T21:30:00;10.6;;;6.5;;
67344;SDS011;54230;52.402;6.276;2024-02-21T21:35:00;10.9;;;6.0;;
67344;SDS011;54230;52.402;6.276;2024-02-21T21:40:00;9.8;;;6.2;;
67344;SDS011;54230;52.402;6.276;2024-02-21T21:45:00;10.7;;;6.0;;
67344;SDS011;54230;52.402;6.276;2024-02-21T21:50:00;10.4;;;6.1;;
67344;SDS011;54230;52.402;6.276;2024-02-21T21:55:00;10.8;;;6.3;;
67344;SDS011;54230;52.402;6.276;2024-02-21T22:00:00;13.2;;;6.7;;
67344;SDS011;54230;52.402;6.276;2024-02-21T22:05:00;12.1;;;6.6;;
67344;SDS011;54230;52.402;6.276;2024-02-21T22:10:00;11.3;;;6.2;;
67344;SDS011;54230;52.402;6.276;2024-02-21T22:15:00;11.0;;;6.0;;
67344;SDS011;54230;52.402;6.276;2024-02-21T22:20:00;10.5;;;6.1;;
67344;SDS011;54230;52.402;6.276;2024-02-21T22:25:00;10.3;;;6.1;;
67344;SDS011;54230;52.402;6.276;2024-02-21T22:30:00;9.3;;;6.0;;
67344;SDS011;54230;52.402;6.276;2024-02-21T22:35:00;9.6;;;5.7;;
67344;SDS011;54230;52.402;6.276;2024-02-21T22:40:00;9.2;;;5.2;;
67344;SDS011;54230;52.402;6.276;2024-02-21T22:45:00;9.2;;;5.1;;
67344;SDS011;54230;52.402;6.276;2024-02-21T22:50:00;8.5;;;5.5;;
67344;SDS011;54230;52.402;6.276;2024-02-21T22:55:00;9.3;;;5.1;;
67344;SDS011;54230;52.402;6.276;2024-02-21T23:00:00;9.0;;;5.1;;
67344;SDS011;54230;52.402;6.276;2024-02-21T23:05:00;9.2;;;5.4;;
67344;SDS011;54230;52.402;6.276;2024-02-21T23:10:00;7.9;;;4.8;;
67344;SDS011;54230;52.402;6.276;2024-02-21T23:15:00;8.2;;;5.2;;
67344;SDS011;54230;52.402;6.276;2024-02-21T23:20:00;7.8;;;5.0;;
67344;SDS011;54230;52.402;6.276;2024-02-21T23:25:00;7.7;;;5.0;;
67344;SDS011;54230;52.402;6.276;2024-02-21T23:30:00;7.2;;;4.7;;
67344;SDS011;54230;52.402;6.276;2024-02-21T23:35:00;7.2;;;4.9;;
67344;SDS011;54230;52.402;6.276;2024-02-21T23:40:00;8.2;;;5.3;;
67344;SDS011;54230;52.402;6.276;2024-02-21T23:45:00;7.3;;;4.4;;
67344;SDS011;54230;52.402;6.276;2024-02-21T23:50:00;7.1;;;4.9;;
67344;SDS011;54230;52.402;6.276;2024-02-21T23:55:00;7.5;;;4.3;;
